EKSD weather

Spjald Airport
Spjald, Central Jutland, Denmark

Public forecast

Using degrees Celsius for public forecast. Weather courtesy of forecast.io.

METAR (pilot weather report)

Report is more than 6 hours old.

Closest report is Stauning Airport, 8.6 nm (16.0 km) SW. Retrieved 2019/05/20 13:50 UTC (13 hours ago):

EKVJ 201350Z 04009KT 9999 VCSH FEW030CB 22/14 Q1007

TAF (pilot weather forecast)

Closest forecast is Karup Airport, 23.5 nm (43.5 km) ENE. Retrieved 2019/05/21 03:31 UTC (0 seconds ago):

TAF EKKA 210212Z 2103/2203 34008KT 2800 BR BKN002 TEMPO 2103/2105 5000 BR BKN004 BECMG 2105/2107 VRB05KT 9999 NSW SCT030 BKN100 TEMPO 2107/2120 2500 SHRA TS BKN005 BKN030CB BECMG 2120/2123 28008KT TEMPO 2120/2203 2000 -SHRA BR BKN004 SCT030CB